Time;durP1;ratioP1;P1;durP2;ratioP2;P2;SDS_P1;SDS_P2;PMS_P1;PMS_P2;Temp;Humidity;BMP_temperature;BMP_pressure;BME280_temperature;BME280_humidity;BME280_pressure;Samples;Min_cycle;Max_cycle;Signal;HPM_P1;HPM_P2
2022/01/27 00:04:35;;;;;;;36.38;16.40;;;5.80;99.90;;;;;;4898214;29;20060;-95
2022/01/27 00:07:23;;;;;;;;;;;5.70;99.90;;;;;;4877909;29;20509;-93
2022/01/27 00:10:17;;;;;;;33.88;14.75;;;5.70;99.90;;;;;;4872540;29;19923;-94
2022/01/27 00:12:54;;;;;;;33.38;15.65;;;5.80;99.90;;;;;;4883341;29;20066;-93
2022/01/27 00:15:31;;;;;;;36.33;16.52;;;6.20;99.90;;;;;;4882849;29;20059;-93
2022/01/27 00:18:08;;;;;;;34.92;16.10;;;5.80;99.90;;;;;;4882782;29;20058;-94
2022/01/27 00:21:01;;;;;;;32.75;17.08;;;6.40;99.90;;;;;;4883357;29;20040;-94
2022/01/27 00:23:59;;;;;;;37.17;16.63;;;6.80;99.90;;;;;;4881940;29;20478;-95
2022/01/27 00:26:28;;;;;;;32.38;16.63;;;5.50;99.90;;;;;;4881475;29;20135;-95
2022/01/27 00:28:59;;;;;;;33.90;15.98;;;5.70;99.90;;;;;;4881803;29;20059;-93
2022/01/27 00:31:33;;;;;;;37.67;16.92;;;5.70;99.90;;;;;;4873194;29;20143;-92
2022/01/27 00:34:21;;;;;;;32.78;16.85;;;5.90;99.90;;;;;;4858379;29;20053;-93
2022/01/27 00:37:16;;;;;;;39.35;16.67;;;5.70;99.90;;;;;;4855869;29;20109;-93
2022/01/27 00:46:46;;;;;;;41.45;16.05;;;5.70;99.90;;;;;;4852832;29;20044;-92
2022/01/27 00:49:38;;;;;;;34.67;17.10;;;6.60;99.90;;;;;;4882984;29;20044;-93
2022/01/27 00:52:51;;;;;;;38.00;17.45;;;6.50;99.90;;;;;;4882204;29;20121;-93
2022/01/27 00:55:40;;;;;;;36.05;17.50;;;5.90;99.90;;;;;;4882554;29;20543;-95
2022/01/27 01:01:47;;;;;;;41.15;17.67;;;5.60;99.90;;;;;;4888606;29;20523;-94
2022/01/27 01:07:50;;;;;;;36.80;18.42;;;5.30;99.90;;;;;;4896926;29;20092;-92
2022/01/27 01:11:12;;;;;;;38.60;17.08;;;6.80;99.90;;;;;;4891593;29;20070;-94
2022/01/27 01:19:48;;;;;;;35.15;17.52;;;5.80;99.90;;;;;;4902924;29;20056;-93
2022/01/27 01:31:46;;;;;;;39.22;17.88;;;5.30;99.90;;;;;;4897997;29;20052;-93
2022/01/27 01:34:46;;;;;;;40.63;18.45;;;5.30;99.90;;;;;;4897132;29;20098;-94
2022/01/27 01:37:19;;;;;;;42.40;19.48;;;5.30;99.90;;;;;;4866763;29;20052;-93
2022/01/27 01:40:19;;;;;;;34.35;18.65;;;5.80;99.90;;;;;;4884760;29;20055;-93
2022/01/27 01:42:54;;;;;;;37.72;18.33;;;5.20;99.90;;;;;;4882352;29;20060;-94
2022/01/27 01:45:36;;;;;;;37.95;19.48;;;5.20;99.90;;;;;;4882164;29;20378;-94
2022/01/27 01:48:33;;;;;;;41.47;17.25;;;5.20;99.90;;;;;;4882373;29;20161;-93
2022/01/27 01:51:07;;;;;;;35.25;18.98;;;5.60;99.90;;;;;;4882285;29;20087;-93
2022/01/27 01:54:04;;;;;;;40.60;20.08;;;6.40;99.90;;;;;;4882899;29;20088;-93
2022/01/27 01:57:12;;;;;;;35.00;18.65;;;5.20;99.90;;;;;;4883659;29;20091;-93
2022/01/27 01:59:57;;;;;;;40.83;18.65;;;5.30;99.90;;;;;;4881836;29;20060;-93
2022/01/27 02:02:42;;;;;;;48.05;20.08;;;5.00;99.90;;;;;;4895221;29;20493;-94
2022/01/27 02:05:25;;;;;;;41.80;20.88;;;5.40;99.90;;;;;;4882243;29;20056;-93
2022/01/27 02:19:51;;;;;;;34.88;20.13;;;5.30;99.90;;;;;;4898193;29;20480;-93
2022/01/27 02:22:41;;;;;;;42.35;20.75;;;6.00;99.90;;;;;;4869546;29;20044;-94
2022/01/27 02:25:22;;;;;;;39.28;20.73;;;5.30;99.90;;;;;;4881449;29;20048;-93
2022/01/27 02:27:55;;;;;;;51.55;22.63;;;5.50;99.90;;;;;;4882007;29;20063;-95
2022/01/27 02:30:33;;;;;;;42.78;22.33;;;5.40;99.90;;;;;;4882193;29;20135;-93
2022/01/27 02:33:18;;;;;;;45.17;21.25;;;5.60;99.90;;;;;;4883292;29;20040;-93
2022/01/27 02:35:52;;;;;;;40.95;20.48;;;5.40;99.90;;;;;;4885742;29;20051;-93
2022/01/27 02:38:29;;;;;;;45.45;22.30;;;5.50;99.90;;;;;;4886302;29;20055;-93
2022/01/27 02:41:10;;;;;;;37.58;22.85;;;5.40;99.90;;;;;;4885667;29;20500;-93
2022/01/27 02:43:47;;;;;;;41.53;21.60;;;5.70;99.90;;;;;;4885817;29;20052;-93
2022/01/27 02:47:01;;;;;;;43.97;22.60;;;5.20;99.90;;;;;;4885262;29;20051;-92
2022/01/27 02:49:34;;;;;;;47.08;22.70;;;5.50;99.90;;;;;;4894547;29;20087;-93
2022/01/27 02:52:20;;;;;;;40.35;21.42;;;5.50;99.90;;;;;;4884214;29;20052;-93
2022/01/27 02:54:57;;;;;;;42.92;22.63;;;6.20;99.90;;;;;;4885497;29;20519;-93
2022/01/27 02:57:41;;;;;;;43.53;22.77;;;5.60;99.90;;;;;;4886024;29;20136;-93
2022/01/27 03:00:26;;;;;;;39.08;22.33;;;5.60;99.90;;;;;;4887973;29;20511;-93
2022/01/27 03:12:29;;;;;;;42.03;22.77;;;5.50;99.90;;;;;;4869063;29;20111;-93
2022/01/27 03:15:24;;;;;;;41.67;22.00;;;5.50;99.90;;;;;;4884488;29;20115;-93
2022/01/27 03:17:53;;;;;;;50.33;23.10;;;5.50;99.90;;;;;;4884571;29;20052;-93
2022/01/27 03:20:39;;;;;;;45.97;23.67;;;5.60;99.90;;;;;;4903738;29;20084;-92
2022/01/27 03:23:35;;;;;;;;;;;;;;;;;;;;;
2022/01/27 03:26:16;;;;;;;44.28;23.05;;;5.70;99.90;;;;;;4900428;29;20047;-93
2022/01/27 03:29:10;;;;;;;47.30;21.67;;;6.30;99.90;;;;;;4901602;29;20126;-93
2022/01/27 03:32:16;;;;;;;42.78;22.63;;;5.60;99.90;;;;;;4885313;29;20044;-93
2022/01/27 03:34:51;;;;;;;42.80;23.65;;;5.50;99.90;;;;;;4884093;29;20060;-93
2022/01/27 03:37:22;;;;;;;42.38;21.60;;;6.80;99.90;;;;;;4882158;29;20040;-93
2022/01/27 03:40:12;;;;;;;50.70;24.00;;;5.40;99.90;;;;;;4879895;29;20188;-93
2022/01/27 03:45:55;;;;;;;39.20;20.25;;;6.00;99.90;;;;;;4880950;29;20068;-94
2022/01/27 03:48:34;;;;;;;46.75;21.92;;;5.40;99.90;;;;;;4880934;29;20060;-93
2022/01/27 03:51:12;;;;;;;40.92;21.70;;;5.20;99.90;;;;;;4880864;29;20524;-93
2022/01/27 03:53:50;;;;;;;40.67;21.42;;;5.30;99.90;;;;;;4881296;29;20046;-92
2022/01/27 03:59:27;;;;;;;41.25;20.67;;;6.60;99.90;;;;;;4849119;29;20060;-93
2022/01/27 04:02:09;;;;;;;43.92;21.15;;;5.80;99.90;;;;;;4880384;29;20061;-93
2022/01/27 04:05:15;;;;;;;39.35;21.35;;;6.30;99.90;;;;;;4880723;29;20064;-92
2022/01/27 04:07:56;;;;;;;43.53;21.08;;;4.90;99.90;;;;;;4865469;29;20184;-93
2022/01/27 04:10:40;;;;;;;43.20;21.73;;;5.70;99.90;;;;;;4880375;29;20088;-94
2022/01/27 04:13:10;;;;;;;45.47;21.52;;;5.70;99.90;;;;;;4880050;29;20485;-93
2022/01/27 04:15:46;;;;;;;43.63;21.13;;;5.70;99.90;;;;;;4880227;29;20059;-93
2022/01/27 04:18:32;;;;;;;45.85;23.40;;;5.70;99.90;;;;;;4879609;29;20143;-92
2022/01/27 04:21:09;;;;;;;40.10;20.30;;;6.20;99.90;;;;;;4880014;29;20057;-92
2022/01/27 04:23:58;;;;;;;45.03;20.67;;;6.20;99.90;;;;;;4880368;29;20393;-92
2022/01/27 04:26:41;;;;;;;40.95;20.73;;;5.40;99.90;;;;;;4881407;29;20116;-93
2022/01/27 04:29:07;;;;;;;46.25;21.52;;;5.80;99.90;;;;;;4883138;29;20507;-93
2022/01/27 04:31:46;;;;;;;42.92;20.60;;;5.70;99.90;;;;;;4883854;29;20108;-93
2022/01/27 04:34:24;;;;;;;41.55;19.85;;;5.10;99.90;;;;;;4884162;29;20449;-93
2022/01/27 04:37:14;;;;;;;42.63;19.02;;;5.80;99.90;;;;;;4883674;29;20079;-94
2022/01/27 04:40:08;;;;;;;47.53;19.33;;;5.90;99.90;;;;;;4900496;29;20424;-94
2022/01/27 04:45:27;;;;;;;42.17;19.73;;;6.20;99.90;;;;;;4898978;29;20139;-93
2022/01/27 04:48:13;;;;;;;44.03;20.27;;;5.80;99.90;;;;;;4882730;29;20044;-93
2022/01/27 04:51:15;;;;;;;47.15;19.85;;;5.80;99.90;;;;;;4883000;29;20501;-93
2022/01/27 04:56:43;;;;;;;43.95;20.13;;;5.70;99.90;;;;;;4899214;29;20087;-93
2022/01/27 04:59:43;;;;;;;42.28;20.67;;;5.70;99.90;;;;;;4883032;29;20487;-94
2022/01/27 05:02:57;;;;;;;47.80;19.88;;;5.30;99.90;;;;;;4882653;29;20064;-94
2022/01/27 05:05:38;;;;;;;;;;;;;;;;;;;;;
2022/01/27 05:08:41;;;;;;;48.83;20.95;;;5.80;99.90;;;;;;4898066;29;20064;-93
2022/01/27 05:11:37;;;;;;;56.22;21.92;;;6.20;99.90;;;;;;4880383;29;20052;-95
2022/01/27 05:14:50;;;;;;;43.40;21.30;;;6.50;99.90;;;;;;4882588;29;20115;-94
2022/01/27 05:17:27;;;;;;;57.17;20.75;;;5.70;99.90;;;;;;4881387;29;20064;-95
2022/01/27 05:20:45;;;;;;;51.30;20.13;;;5.70;99.90;;;;;;4902062;29;20095;-95
2022/01/27 05:23:17;;;;;;;55.88;21.38;;;5.60;99.90;;;;;;4898533;29;20413;-95
2022/01/27 05:26:05;;;;;;;;;;;;;;;;;;;;;
2022/01/27 05:28:52;;;;;;;57.78;21.75;;;6.30;99.90;;;;;;4898397;29;20060;-95
2022/01/27 05:31:46;;;;;;;54.67;21.38;;;5.40;99.90;;;;;;4883631;29;20442;-94
2022/01/27 05:34:33;;;;;;;54.80;22.40;;;5.70;99.90;;;;;;4898767;29;20052;-96
2022/01/27 05:37:35;;;;;;;60.63;22.50;;;5.60;99.90;;;;;;4882304;29;20052;-96
2022/01/27 05:40:15;;;;;;;61.05;21.80;;;6.10;99.90;;;;;;4897700;29;20059;-96
2022/01/27 05:43:04;;;;;;;63.03;23.27;;;5.00;99.90;;;;;;4882687;29;20052;-96
2022/01/27 05:46:29;;;;;;;51.80;21.48;;;5.60;99.90;;;;;;4899639;29;20052;-96
2022/01/27 05:48:51;;;;;;;50.40;22.08;;;5.10;99.90;;;;;;4903022;29;20049;-96
2022/01/27 05:54:18;;;;;;;55.20;20.23;;;5.70;99.90;;;;;;4878848;29;20584;-95
2022/01/27 06:00:20;;;;;;;60.72;20.40;;;5.80;99.90;;;;;;4879123;29;20117;-96
2022/01/27 06:03:21;;;;;;;49.75;19.05;;;5.10;99.90;;;;;;4879211;29;20049;-96
2022/01/27 06:06:23;;;;;;;55.72;20.63;;;5.70;99.90;;;;;;4855612;29;20053;-96
2022/01/27 06:09:10;;;;;;;51.33;20.17;;;5.80;99.90;;;;;;4829733;29;20061;-96
2022/01/27 06:12:07;;;;;;;43.78;19.38;;;5.80;99.90;;;;;;4849661;29;20458;-96
2022/01/27 06:15:06;;;;;;;47.13;18.92;;;5.80;99.90;;;;;;4858362;29;20069;-96
2022/01/27 06:18:27;;;;;;;53.75;19.33;;;5.90;99.90;;;;;;4845147;29;20117;-96
2022/01/27 06:25:54;;;;;;;49.80;18.90;;;5.30;99.90;;;;;;4825561;29;20145;-96
2022/01/27 06:28:20;;;;;;;43.95;18.20;;;5.90;99.90;;;;;;4839514;29;20085;-96
2022/01/27 06:31:10;;;;;;;44.78;18.88;;;6.80;99.90;;;;;;4844251;29;20056;-96
2022/01/27 06:33:44;;;;;;;43.15;18.98;;;5.90;99.90;;;;;;4844531;29;20502;-96
2022/01/27 06:36:53;;;;;;;46.70;19.08;;;5.90;99.90;;;;;;4844317;29;20157;-95
2022/01/27 06:39:52;;;;;;;40.47;16.70;;;6.20;99.90;;;;;;4863579;29;20112;-96
2022/01/27 06:42:28;;;;;;;51.03;17.10;;;6.00;99.90;;;;;;4866396;29;20088;-96
2022/01/27 06:45:13;;;;;;;45.60;17.00;;;5.60;99.90;;;;;;4882580;29;20057;-96
2022/01/27 06:48:45;;;;;;;39.05;14.82;;;6.10;99.90;;;;;;4883737;29;20052;-96
2022/01/27 06:55:05;;;;;;;41.17;17.17;;;6.10;99.90;;;;;;4885853;29;20053;-96
2022/01/27 07:01:17;;;;;;;39.83;16.42;;;6.20;99.90;;;;;;4866057;29;20045;-96
2022/01/27 07:06:49;;;;;;;36.15;15.43;;;6.40;99.90;;;;;;4879924;29;20088;-96
2022/01/27 07:10:47;;;;;;;38.50;14.30;;;6.70;99.90;;;;;;4883649;29;20440;-96
2022/01/27 07:13:58;;;;;;;34.03;13.95;;;6.30;99.90;;;;;;4878514;29;20060;-96
2022/01/27 07:17:26;;;;;;;30.40;13.60;;;6.20;99.90;;;;;;4866766;29;20131;-96
2022/01/27 07:20:47;;;;;;;38.40;13.13;;;6.30;99.90;;;;;;4871198;29;20048;-96
2022/01/27 07:27:34;;;;;;;26.52;11.23;;;6.30;99.90;;;;;;4849769;29;20045;-96
2022/01/27 07:30:28;;;;;;;36.45;13.63;;;6.40;99.90;;;;;;4848978;29;20088;-96
2022/01/27 07:33:17;;;;;;;32.58;12.80;;;6.40;99.90;;;;;;4864821;29;20244;-96
2022/01/27 07:35:51;;;;;;;32.08;13.10;;;6.50;99.90;;;;;;4865340;29;20051;-96
2022/01/27 07:42:09;;;;;;;31.33;13.65;;;6.40;99.90;;;;;;4877533;29;20548;-96
2022/01/27 07:44:47;;;;;;;32.67;13.95;;;6.50;99.90;;;;;;4864498;29;20135;-96
2022/01/27 07:47:34;;;;;;;34.03;14.23;;;6.40;99.90;;;;;;4881386;29;20082;-96
2022/01/27 07:54:46;;;;;;;33.22;12.68;;;6.60;99.90;;;;;;4841547;29;20050;-96
2022/01/27 07:57:33;;;;;;;39.00;13.93;;;6.60;99.90;;;;;;4856297;29;20580;-96
2022/01/27 08:00:50;;;;;;;37.10;13.05;;;7.20;99.90;;;;;;4864134;29;20052;-96
2022/01/27 08:11:04;;;;;;;35.95;13.38;;;6.90;99.90;;;;;;4848906;29;20052;-96
2022/01/27 08:14:20;;;;;;;;;;;;;;;;;;;;;
2022/01/27 08:17:09;;;;;;;35.25;12.25;;;7.10;99.90;;;;;;4868124;29;20124;-96
2022/01/27 08:20:43;;;;;;;;;;;;;;;;;;;;;
2022/01/27 08:23:32;;;;;;;36.95;11.98;;;7.10;99.90;;;;;;4834668;29;20048;-96
2022/01/27 08:30:43;;;;;;;32.92;10.73;;;7.20;99.90;;;;;;4857048;29;20077;-96
2022/01/27 08:33:39;;;;;;;34.75;11.15;;;7.20;99.90;;;;;;4872383;23;20033;-90
2022/01/27 08:36:05;;;;;;;35.00;10.70;;;7.30;99.90;;;;;;4877847;29;20066;-87
2022/01/27 08:38:31;;;;;;;31.30;10.80;;;7.40;99.90;;;;;;4893683;29;20199;-88
2022/01/27 08:41:04;;;;;;;37.60;11.10;;;7.40;99.90;;;;;;4910063;29;20139;-86
2022/01/27 08:43:30;;;;;;;36.30;9.77;;;8.50;99.90;;;;;;4877035;29;20063;-89
2022/01/27 08:45:57;;;;;;;33.47;9.18;;;7.70;99.90;;;;;;4876611;29;20482;-92
2022/01/27 08:48:27;;;;;;;41.90;9.13;;;7.70;99.90;;;;;;4878499;29;20346;-94
2022/01/27 08:50:59;;;;;;;33.22;9.52;;;7.40;99.90;;;;;;4890762;29;20055;-91
2022/01/27 08:53:26;;;;;;;36.22;10.27;;;8.40;99.90;;;;;;4880243;29;20047;-91
2022/01/27 08:55:52;;;;;;;36.88;9.40;;;8.10;99.90;;;;;;4879702;29;20507;-87
2022/01/27 08:58:20;;;;;;;31.85;9.45;;;8.10;99.90;;;;;;4878260;29;20051;-90
2022/01/27 09:00:46;;;;;;;30.83;8.20;;;7.40;99.90;;;;;;4876505;29;20056;-90
2022/01/27 09:03:12;;;;;;;33.30;8.65;;;8.10;99.90;;;;;;4878581;29;20075;-90
2022/01/27 09:05:38;;;;;;;30.40;8.13;;;7.90;99.90;;;;;;4880518;29;20060;-90
2022/01/27 09:08:04;;;;;;;34.95;8.07;;;8.00;99.90;;;;;;4894719;29;20530;-90
2022/01/27 09:10:31;;;;;;;37.47;8.40;;;7.60;99.90;;;;;;4895546;29;20059;-90
2022/01/27 09:12:59;;;;;;;26.42;7.85;;;8.10;99.90;;;;;;4879268;29;20044;-91
2022/01/27 09:15:24;;;;;;;28.80;7.63;;;7.90;99.90;;;;;;4898900;29;20044;-90
2022/01/27 09:17:50;;;;;;;31.10;7.85;;;8.20;99.90;;;;;;4899304;29;20082;-92
2022/01/27 09:20:16;;;;;;;27.67;7.43;;;7.60;99.90;;;;;;4914536;29;20524;-93
2022/01/27 09:22:42;;;;;;;26.08;7.32;;;7.60;99.90;;;;;;4899625;29;20199;-92
2022/01/27 09:25:16;;;;;;;27.92;7.00;;;8.60;99.90;;;;;;4898266;29;20411;-91
2022/01/27 09:27:42;;;;;;;31.92;6.53;;;7.70;99.90;;;;;;4898878;29;20054;-94
2022/01/27 09:30:10;;;;;;;32.05;6.53;;;8.30;99.90;;;;;;4898916;29;20248;-92
2022/01/27 09:32:49;;;;;;;31.83;6.18;;;7.70;99.90;;;;;;4916368;29;20171;-91
2022/01/27 09:35:16;;;;;;;26.83;5.85;;;8.60;99.90;;;;;;4900644;29;20070;-92
2022/01/27 09:37:42;;;;;;;31.77;6.72;;;7.80;99.90;;;;;;4899709;29;20086;-94
2022/01/27 09:40:12;;;;;;;33.30;6.07;;;7.80;99.90;;;;;;4898536;29;20044;-94
2022/01/27 09:42:38;;;;;;;30.05;5.80;;;7.90;99.90;;;;;;4902805;29;20043;-93
2022/01/27 09:45:07;;;;;;;30.90;5.55;;;9.00;99.90;;;;;;4904738;29;20063;-92
2022/01/27 09:47:35;;;;;;;20.77;5.50;;;8.10;99.90;;;;;;4901898;29;20048;-93
2022/01/27 09:50:22;;;;;;;26.77;6.28;;;8.70;99.90;;;;;;4866372;29;20580;-94
2022/01/27 09:52:49;;;;;;;24.02;5.38;;;8.20;99.90;;;;;;4866421;29;20114;-92
2022/01/27 09:55:15;;;;;;;24.88;5.45;;;9.00;99.90;;;;;;4880074;29;20055;-92
2022/01/27 09:57:40;;;;;;;28.77;5.38;;;8.10;99.90;;;;;;4866182;29;20044;-93
2022/01/27 10:00:07;;;;;;;25.08;5.38;;;8.20;99.90;;;;;;4867033;29;20056;-93
2022/01/27 10:02:33;;;;;;;28.95;5.28;;;8.20;99.90;;;;;;4867277;29;20053;-95
2022/01/27 10:05:22;;;;;;;30.83;5.55;;;8.60;99.90;;;;;;4882513;29;20053;-92
2022/01/27 10:07:48;;;;;;;30.35;5.75;;;8.20;99.90;;;;;;4865258;29;20135;-92
2022/01/27 10:10:41;;;;;;;31.98;5.15;;;9.00;99.90;;;;;;4865130;29;20100;-93
2022/01/27 10:13:08;;;;;;;29.20;6.05;;;8.30;99.90;;;;;;4863903;29;20052;-86
2022/01/27 10:15:39;;;;;;;29.55;5.43;;;7.50;99.90;;;;;;4878336;29;20048;-87
2022/01/27 10:18:15;;;;;;;25.83;4.70;;;8.30;99.90;;;;;;4877935;29;20059;-85
2022/01/27 10:20:49;;;;;;;31.10;6.05;;;8.80;99.90;;;;;;4878828;29;20201;-86
2022/01/27 10:23:16;;;;;;;22.17;5.07;;;8.40;99.90;;;;;;4893763;29;20064;-86
2022/01/27 10:25:46;;;;;;;33.30;5.45;;;8.30;99.90;;;;;;4878477;29;20052;-86
2022/01/27 10:28:32;;;;;;;26.17;5.57;;;8.90;99.90;;;;;;4862965;29;20104;-86
2022/01/27 10:31:02;;;;;;;27.33;5.18;;;8.40;99.90;;;;;;4877573;29;20056;-85
2022/01/27 10:33:41;;;;;;;27.55;5.60;;;8.40;99.90;;;;;;4863295;29;20057;-85
2022/01/27 10:36:17;;;;;;;20.95;4.15;;;8.40;99.90;;;;;;4877026;29;20135;-86
2022/01/27 10:38:43;;;;;;;29.33;5.35;;;8.40;99.90;;;;;;4894131;29;20091;-87
2022/01/27 10:41:08;;;;;;;23.90;4.75;;;8.40;99.90;;;;;;4877224;29;20097;-86
2022/01/27 10:43:34;;;;;;;22.58;4.47;;;8.50;99.90;;;;;;4893490;29;20052;-86
2022/01/27 10:46:16;;;;;;;24.23;4.50;;;8.80;99.90;;;;;;4893211;29;20049;-86
2022/01/27 10:48:49;;;;;;;26.35;4.93;;;8.60;99.90;;;;;;4881819;29;20060;-89
2022/01/27 10:51:22;;;;;;;20.15;4.22;;;8.70;99.90;;;;;;4861725;29;20450;-90
2022/01/27 10:53:54;;;;;;;24.52;4.18;;;8.70;99.90;;;;;;4863170;29;20048;-93
2022/01/27 10:56:26;;;;;;;26.38;5.10;;;9.70;99.90;;;;;;4879939;29;20055;-93
2022/01/27 10:58:53;;;;;;;29.38;5.25;;;8.90;99.90;;;;;;4863922;29;20048;-92
2022/01/27 11:01:38;;;;;;;24.85;5.03;;;9.00;99.90;;;;;;4879739;29;20075;-92
2022/01/27 11:04:14;;;;;;;36.60;5.40;;;8.80;99.90;;;;;;4865906;29;20480;-94
2022/01/27 11:07:03;;;;;;;24.17;4.93;;;8.70;99.90;;;;;;4879863;29;20409;-93
2022/01/27 11:09:35;;;;;;;28.75;4.60;;;9.20;99.90;;;;;;4878953;29;20056;-91
2022/01/27 11:12:06;;;;;;;29.17;4.78;;;9.50;99.90;;;;;;4878121;29;20052;-91
2022/01/27 11:14:34;;;;;;;23.98;5.13;;;8.80;99.90;;;;;;4880315;29;20175;-90
2022/01/27 11:17:01;;;;;;;26.55;5.00;;;9.20;99.90;;;;;;4887756;29;20091;-89
2022/01/27 11:22:08;;;;;;;26.95;4.65;;;9.80;99.90;;;;;;4892675;29;20053;-93
2022/01/27 11:25:49;;;;;;;29.50;5.07;;;9.20;99.90;;;;;;4869355;29;20048;-96
2022/01/27 11:27:55;;;;;;;21.70;4.28;;;7.70;99.90;;;;;;4876607;29;20128;-86
2022/01/27 11:30:33;;;;;;;28.10;4.55;;;8.90;99.90;;;;;;4877799;29;20151;-86
2022/01/27 11:33:10;;;;;;;22.35;4.60;;;8.90;99.90;;;;;;4892286;29;20483;-86
2022/01/27 11:35:39;;;;;;;33.88;4.90;;;9.80;99.90;;;;;;4862465;29;20060;-85
2022/01/27 11:38:05;;;;;;;37.75;5.50;;;9.20;99.90;;;;;;4877203;29;20067;-85
2022/01/27 11:40:36;;;;;;;26.45;4.65;;;8.90;99.90;;;;;;4877606;29;20049;-85
2022/01/27 11:43:06;;;;;;;24.98;4.82;;;9.80;99.90;;;;;;4865953;29;20051;-85
2022/01/27 11:45:38;;;;;;;24.10;4.63;;;8.90;99.90;;;;;;4871316;29;20041;-87
2022/01/27 11:48:08;;;;;;;25.40;4.60;;;8.90;99.90;;;;;;4875661;29;20051;-86
2022/01/27 11:50:38;;;;;;;24.75;4.15;;;9.00;99.90;;;;;;4862289;29;20067;-86
2022/01/27 11:53:10;;;;;;;32.40;4.95;;;9.00;99.90;;;;;;4875699;29;20080;-86
2022/01/27 11:55:36;;;;;;;24.58;4.88;;;9.50;99.90;;;;;;4861014;29;20108;-86
2022/01/27 11:58:17;;;;;;;31.23;5.13;;;8.90;99.90;;;;;;4876581;29;20052;-87
2022/01/27 12:01:00;;;;;;;32.55;5.10;;;8.90;99.90;;;;;;4875968;29;20052;-88
2022/01/27 12:03:26;;;;;;;45.35;5.82;;;8.90;99.90;;;;;;4862149;29;20108;-87
2022/01/27 12:06:14;;;;;;;28.95;4.68;;;9.00;99.90;;;;;;4860957;29;20052;-87
2022/01/27 12:08:39;;;;;;;28.98;4.80;;;9.00;99.90;;;;;;4861018;29;20088;-87
2022/01/27 12:11:09;;;;;;;24.52;4.72;;;9.00;99.90;;;;;;4876646;29;20087;-85
2022/01/27 12:13:43;;;;;;;37.20;5.00;;;9.00;99.90;;;;;;4877152;29;20056;-85
2022/01/27 12:19:02;;;;;;;27.85;4.30;;;9.00;99.90;;;;;;4877397;29;20140;-85
2022/01/27 12:21:35;;;;;;;24.98;3.92;;;9.00;99.90;;;;;;4876175;29;20062;-85
2022/01/27 12:24:19;;;;;;;26.42;4.57;;;9.00;99.90;;;;;;4860425;29;20049;-85
2022/01/27 12:26:51;;;;;;;29.38;4.68;;;9.00;99.90;;;;;;4861173;29;20127;-85
2022/01/27 12:29:31;;;;;;;29.05;5.00;;;9.00;99.90;;;;;;4873051;29;20077;-86
2022/01/27 12:32:01;;;;;;;19.25;3.47;;;9.00;99.90;;;;;;4904557;29;20112;-85
2022/01/27 12:34:27;;;;;;;36.97;5.03;;;9.30;99.90;;;;;;4893182;29;20090;-86
2022/01/27 12:36:54;;;;;;;28.40;4.35;;;9.00;99.90;;;;;;4878729;29;20056;-86
2022/01/27 12:39:21;;;;;;;33.85;5.55;;;9.00;99.90;;;;;;4894375;29;20040;-85
2022/01/27 12:41:48;;;;;;;33.03;4.85;;;9.00;99.90;;;;;;4879659;29;20059;-86
2022/01/27 12:44:14;;;;;;;26.48;4.82;;;9.00;99.90;;;;;;4894308;29;20085;-86
2022/01/27 12:46:59;;;;;;;26.13;4.00;;;9.30;99.90;;;;;;4894808;29;20052;-85
2022/01/27 12:49:36;;;;;;;27.20;4.10;;;9.50;99.90;;;;;;4878919;29;20051;-85
2022/01/27 12:52:05;;;;;;;29.23;4.95;;;9.00;99.90;;;;;;4879162;29;20368;-85
2022/01/27 12:54:31;;;;;;;40.35;5.05;;;9.00;99.90;;;;;;4878956;29;20058;-85
2022/01/27 12:56:57;;;;;;;26.92;4.15;;;9.00;99.90;;;;;;4893423;29;20494;-86
2022/01/27 12:59:22;;;;;;;34.00;4.28;;;9.10;99.90;;;;;;4895032;29;20055;-85
2022/01/27 13:01:58;;;;;;;32.63;5.38;;;9.10;99.90;;;;;;4894856;29;20393;-84
2022/01/27 13:04:25;;;;;;;33.45;5.07;;;9.10;99.90;;;;;;4878716;29;20048;-84
2022/01/27 13:06:53;;;;;;;26.65;5.30;;;9.70;99.90;;;;;;4894123;29;20047;-84
2022/01/27 13:09:19;;;;;;;38.20;4.55;;;9.10;99.90;;;;;;4878519;29;20127;-84
2022/01/27 13:11:47;;;;;;;47.55;6.05;;;9.00;99.90;;;;;;4878302;29;20254;-84
2022/01/27 13:14:12;;;;;;;32.50;4.97;;;9.00;99.90;;;;;;4894038;29;20055;-84
2022/01/27 13:16:45;;;;;;;23.75;5.35;;;9.50;99.90;;;;;;4875420;29;20115;-85
2022/01/27 13:19:22;;;;;;;35.75;6.22;;;8.90;99.90;;;;;;4874624;29;20057;-86
2022/01/27 13:21:59;;;;;;;29.67;4.72;;;9.70;99.90;;;;;;4876231;29;20135;-85
2022/01/27 13:24:26;;;;;;;31.95;4.85;;;9.10;99.90;;;;;;4874735;29;20497;-86
2022/01/27 13:27:05;;;;;;;30.88;5.35;;;9.40;99.90;;;;;;4860396;29;20059;-87
2022/01/27 13:29:40;;;;;;;27.88;5.22;;;8.90;99.90;;;;;;4860453;29;20128;-86
2022/01/27 13:32:07;;;;;;;32.17;4.57;;;9.00;99.90;;;;;;4874556;29;20053;-86
2022/01/27 13:34:40;;;;;;;28.40;4.70;;;8.90;99.90;;;;;;4875462;29;20517;-86
2022/01/27 13:37:05;;;;;;;26.80;3.92;;;8.90;99.90;;;;;;4875361;29;20056;-87
2022/01/27 13:42:19;;;;;;;27.98;4.28;;;9.00;99.90;;;;;;4876113;29;20580;-86
2022/01/27 13:44:52;;;;;;;32.42;4.50;;;8.90;99.90;;;;;;4860066;29;20072;-88
2022/01/27 13:47:25;;;;;;;31.90;4.13;;;8.80;99.90;;;;;;4860472;29;20576;-86
2022/01/27 13:49:52;;;;;;;31.45;4.00;;;9.40;99.90;;;;;;4859608;29;20548;-86
2022/01/27 13:52:18;;;;;;;34.95;5.07;;;8.80;99.90;;;;;;4875399;29;20047;-86
2022/01/27 13:54:47;;;;;;;35.25;5.18;;;8.80;99.90;;;;;;4874268;29;20044;-86
2022/01/27 13:57:15;;;;;;;28.70;4.90;;;9.50;99.90;;;;;;4877151;29;20048;-86
2022/01/27 13:59:41;;;;;;;30.80;4.63;;;8.80;99.90;;;;;;4875293;29;20048;-86
2022/01/27 14:02:14;;;;;;;30.38;4.00;;;8.70;99.90;;;;;;4878092;29;20095;-86
2022/01/27 14:04:45;;;;;;;27.77;3.33;;;8.70;99.90;;;;;;4894492;29;20135;-87
2022/01/27 14:07:11;;;;;;;26.50;4.95;;;8.70;99.90;;;;;;4877381;29;20331;-86
2022/01/27 14:09:41;;;;;;;25.40;4.75;;;8.70;99.90;;;;;;4874090;29;20082;-86
2022/01/27 14:12:07;;;;;;;26.48;4.85;;;8.80;99.90;;;;;;4866739;29;20131;-87
2022/01/27 14:14:51;;;;;;;21.52;3.72;;;8.60;99.90;;;;;;4859178;29;20473;-86
2022/01/27 14:17:18;;;;;;;39.38;5.20;;;8.60;99.90;;;;;;4860014;29;20044;-86
2022/01/27 14:19:44;;;;;;;28.60;4.68;;;8.60;99.90;;;;;;4860498;29;20041;-86
2022/01/27 14:22:16;;;;;;;35.40;4.45;;;8.50;99.90;;;;;;4859385;29;20100;-86
2022/01/27 14:25:08;;;;;;;33.40;4.47;;;9.10;99.90;;;;;;4875473;29;20063;-86
2022/01/27 14:27:39;;;;;;;34.08;5.07;;;8.40;99.90;;;;;;4876316;29;20053;-85
2022/01/27 14:30:08;;;;;;;26.55;3.65;;;8.30;99.90;;;;;;4862107;29;20151;-84
2022/01/27 14:32:34;;;;;;;32.63;4.43;;;8.30;99.90;;;;;;4863474;29;20044;-84
2022/01/27 14:35:00;;;;;;;25.83;4.80;;;8.20;99.90;;;;;;4877069;29;20119;-85
2022/01/27 14:37:25;;;;;;;37.60;5.00;;;8.30;99.90;;;;;;4878715;29;20885;-84
2022/01/27 14:39:51;;;;;;;32.63;5.43;;;8.10;99.90;;;;;;4861907;29;20050;-84
2022/01/27 14:42:21;;;;;;;32.33;5.07;;;8.20;99.90;;;;;;4862310;29;20059;-85
2022/01/27 14:44:46;;;;;;;33.80;3.80;;;8.00;99.90;;;;;;4878914;29;20095;-84
2022/01/27 14:47:12;;;;;;;36.67;5.90;;;8.00;99.90;;;;;;4883164;29;20044;-85
2022/01/27 14:49:42;;;;;;;37.10;5.55;;;8.10;99.90;;;;;;4862520;29;20048;-85
2022/01/27 14:52:12;;;;;;;34.75;4.82;;;8.20;99.90;;;;;;4881848;29;20123;-84
2022/01/27 14:54:38;;;;;;;36.50;6.05;;;8.30;99.90;;;;;;4885672;29;20054;-85
2022/01/27 14:57:04;;;;;;;32.00;5.22;;;8.10;99.90;;;;;;4871247;29;20040;-84
2022/01/27 14:59:29;;;;;;;31.90;4.80;;;8.10;99.90;;;;;;4868082;29;20454;-84
2022/01/27 15:01:55;;;;;;;31.33;4.65;;;8.20;99.90;;;;;;4877804;29;20491;-84
2022/01/27 15:04:21;;;;;;;28.23;4.18;;;8.50;99.90;;;;;;4877647;29;20041;-85
2022/01/27 15:06:48;;;;;;;36.00;5.55;;;7.90;99.90;;;;;;4863346;29;20120;-84
2022/01/27 15:09:14;;;;;;;24.45;5.03;;;8.30;99.90;;;;;;4877301;29;20045;-84
2022/01/27 15:11:40;;;;;;;40.22;4.60;;;7.90;99.90;;;;;;4862232;29;20127;-84
2022/01/27 15:19:37;;;;;;;24.95;3.97;;;7.80;99.90;;;;;;4878237;29;20091;-86
2022/01/27 15:22:05;;;;;;;33.53;5.18;;;7.90;99.90;;;;;;4862865;29;20056;-85
2022/01/27 15:24:31;;;;;;;38.28;5.03;;;7.60;99.90;;;;;;4876941;29;20422;-85
2022/01/27 15:26:57;;;;;;;32.03;5.30;;;7.60;99.90;;;;;;4877893;29;20045;-86
2022/01/27 15:29:23;;;;;;;36.40;5.47;;;7.60;99.90;;;;;;4878225;29;20048;-85
2022/01/27 15:31:49;;;;;;;36.05;5.72;;;8.30;99.90;;;;;;4876674;29;20508;-85
2022/01/27 15:34:16;;;;;;;31.25;4.22;;;8.50;99.90;;;;;;4861588;29;20504;-85
2022/01/27 15:36:42;;;;;;;27.33;4.03;;;7.50;99.90;;;;;;4877770;29;20430;-86
2022/01/27 15:39:09;;;;;;;39.72;4.80;;;7.50;99.90;;;;;;4877312;29;20719;-95
2022/01/27 15:41:35;;;;;;;34.20;4.20;;;7.40;99.90;;;;;;4886235;29;20098;-88
2022/01/27 15:44:01;;;;;;;33.72;4.43;;;7.40;99.90;;;;;;4861752;29;20060;-89
2022/01/27 15:46:28;;;;;;;35.97;6.32;;;7.50;99.90;;;;;;4877075;29;20411;-89
2022/01/27 15:48:54;;;;;;;31.02;5.03;;;7.30;99.90;;;;;;4889893;29;20059;-89
2022/01/27 15:51:20;;;;;;;26.95;4.68;;;7.30;99.90;;;;;;4880985;29;20040;-88